No.3toumei Maru — JD2403 — position and weather

sailwx.info

Track history (hours):
 
Tides and Currents Weather Stations Pressure Air Temp Water Temp Dewpoint Dewpoint Depression Visibility Wind Speed Wind Dir Waves Ship Positions

No.3toumei Maru

Last reported at 2018-Feb-24 12:53 UTC. Time now 2018-Feb-24 23:30 UTC.
Position N 35°10' E 139°44'.

Length 60 m.

Type: Tanker. MMSI: 431000178.

Date/timePositionNaut miles runAvg speedWind from/ knotsBaromVisibWave heightAir tempDewpointWater temp
2018-Feb-24 12:53N 35°10' E 139°44'511.1
2018-Feb-24 12:26N 35°15' E 139°46'511.4
2018-Feb-24 12:00N 35°19' E 139°43'510.9
2018-Feb-24 11:30N 35°24' E 139°43'611.6
2018-Feb-24 10:59N 35°29' E 139°47'2 4.1
2018-Feb-24 10:28N 35°31' E 139°46'0 0.0
2018-Feb-24 09:58N 35°31' E 139°46'0 0.0
2018-Feb-24 09:23N 35°31' E 139°46'0 0.0
2018-Feb-24 08:50N 35°31' E 139°46'0 0.0
2018-Feb-24 08:28N 35°31' E 139°46'0 0.0
2018-Feb-24 07:59N 35°31' E 139°46'0 0.0
2018-Feb-24 07:28N 35°31' E 139°46'0 0.0
2018-Feb-24 06:59N 35°31' E 139°46'0 0.0
2018-Feb-24 06:23N 35°31' E 139°46'0 0.0
2018-Feb-24 05:58N 35°31' E 139°46'2 4.7
2018-Feb-24 05:28N 35°30' E 139°49'10 0.2
2018-Feb-22 02:38N 35°37' E 139°58'9 1.9
2018-Feb-21 22:00N 35°30' E 139°52'510.8
2018-Feb-21 21:30N 35°26' E 139°48'610.8
2018-Feb-21 20:59N 35°21' E 139°45'510.3
2018-Feb-21 20:30N 35°16' E 139°46'510.6
2018-Feb-21 20:00N 35°11' E 139°46'1010.1
2018-Feb-21 19:00N 35°03' E 139°39'13910.6
2018-Feb-21 05:56N 34°39' E 136°52'511.7
2018-Feb-21 05:29N 34°43' E 136°48'611.7
2018-Feb-21 05:00N 34°48' E 136°45'611.3
2018-Feb-21 04:30N 34°53' E 136°43'5 9.6
2018-Feb-21 04:00N 34°57' E 136°39'0 0.5
2018-Feb-21 03:28N 34°57' E 136°38'0 0.0
2018-Feb-21 02:58N 34°57' E 136°38'0 0.0
2018-Feb-21 02:28N 34°57' E 136°38'0 0.0
2018-Feb-21 01:55N 34°57' E 136°38'0 0.0
2018-Feb-21 01:28N 34°57' E 136°38'0 0.0
2018-Feb-21 00:58N 34°57' E 136°38'0 0.0
2018-Feb-21 00:28N 34°57' E 136°38'0 0.0
2018-Feb-20 23:55N 34°57' E 136°38'1 1.6
2018-Feb-20 23:30N 34°57' E 136°39'0 0.1
2018-Feb-20 23:00N 34°57' E 136°39'0 0.0
2018-Feb-20 22:30N 34°57' E 136°39'0 0.0
2018-Feb-20 22:00N 34°57' E 136°39'0 0.0
2018-Feb-20 21:30N 34°57' E 136°39'0 0.0
2018-Feb-20 20:56N 34°57' E 136°39'0 0.0
2018-Feb-20 20:26N 34°57' E 136°39'0 0.0
2018-Feb-20 20:00N 34°57' E 136°39'0 0.0
2018-Feb-20 19:30N 34°57' E 136°39'0 0.0
2018-Feb-20 18:55N 34°57' E 136°39'0 0.0
2018-Feb-20 18:25N 34°57' E 136°39'0 0.0
2018-Feb-20 17:58N 34°57' E 136°39'0 0.0
2018-Feb-20 17:28N 34°57' E 136°39'0 0.0
2018-Feb-20 16:55N 34°57' E 136°39'0 0.0
2018-Feb-20 16:25N 34°57' E 136°39'0 0.0
2018-Feb-20 15:55N 34°57' E 136°39'0 0.0
2018-Feb-20 15:25N 34°57' E 136°39'0 0.0
2018-Feb-20 14:55N 34°57' E 136°39'0 0.0
2018-Feb-20 14:25N 34°57' E 136°39'0 0.0
2018-Feb-20 13:55N 34°57' E 136°39'0 0.0
2018-Feb-20 13:28N 34°57' E 136°39'0 0.0
2018-Feb-20 12:58N 34°57' E 136°39'0 0.0
2018-Feb-20 12:28N 34°57' E 136°39'0 0.0
2018-Feb-20 11:47N 34°57' E 136°39'0 0.0
2018-Feb-20 11:29N 34°57' E 136°39'0 0.0
2018-Feb-20 10:59N 34°57' E 136°39'0 0.0
2018-Feb-20 10:29N 34°57' E 136°39'0 0.0
2018-Feb-20 09:59N 34°57' E 136°39'0 0.0
2018-Feb-20 09:29N 34°57' E 136°39'0 0.0
2018-Feb-20 08:59N 34°57' E 136°39'0 0.0
2018-Feb-20 08:29N 34°57' E 136°39'0 0.0
2018-Feb-20 07:55N 34°57' E 136°39'0 0.0
2018-Feb-20 07:28N 34°57' E 136°39'0 0.0
2018-Feb-20 07:00N 34°57' E 136°39'3 5.3
2018-Feb-20 06:30N 34°57' E 136°42'4 7.9
2018-Feb-20 06:00N 34°59' E 136°46'5 9.8
2018-Feb-20 05:30N 35°02' E 136°51'2 4.1
2018-Feb-20 04:59N 35°03' E 136°53'0 0.0
2018-Feb-20 04:29N 35°03' E 136°53'0 0.3
2018-Feb-20 04:01N 35°03' E 136°53'1 1.3
2018-Feb-20 03:28N 35°03' E 136°52'0 0.0
2018-Feb-20 03:01N 35°03' E 136°52'0 0.0
2018-Feb-20 02:28N 35°03' E 136°52'0 0.0
2018-Feb-20 02:00N 35°03' E 136°52'0 0.0
2018-Feb-20 01:27N 35°03' E 136°52'3 7.5
2018-Feb-20 01:00N 35°00' E 136°50'510.2
2018-Feb-20 00:30N 34°56' E 136°47'510.3
2018-Feb-20 00:00N 34°50' E 136°47'510.3
2018-Feb-19 23:30N 34°45' E 136°49'147 9.0
2018-Feb-19 07:15N 35°12' E 139°45'3 9.8
2018-Feb-19 06:56N 35°15' E 139°46'4 9.9
2018-Feb-19 06:30N 35°19' E 139°43'5 9.6
2018-Feb-19 05:59N 35°23' E 139°43'510.3
2018-Feb-19 05:30N 35°27' E 139°47'14 2.3
2018-Feb-18 23:19N 35°32' E 140°03'1 2.9
2018-Feb-18 22:56N 35°32' E 140°02'0 0.0
2018-Feb-18 22:26N 35°32' E 140°02'0 0.6
2018-Feb-18 21:59N 35°32' E 140°02'611.0
2018-Feb-18 21:24N 35°29' E 139°54'511.4
2018-Feb-18 21:00N 35°27' E 139°50'611.3
2018-Feb-18 20:30N 35°22' E 139°46'510.7
2018-Feb-18 20:00N 35°17' E 139°46'611.0
2018-Feb-18 19:28N 35°11' E 139°46'1110.9
2018-Feb-18 18:27N 35°02' E 139°39'13911.0
2018-Feb-18 05:48N 34°39' E 136°52'411.9
2018-Feb-18 05:28N 34°42' E 136°49'612.2
2018-Feb-18 05:00N 34°48' E 136°46'612.3
2018-Feb-18 04:30N 34°54' E 136°46'611.0
2018-Feb-18 04:00N 34°59' E 136°48'611.5
2018-Feb-18 03:30N 35°04' E 136°52'1 1.5
2018-Feb-18 02:59N 35°04' E 136°52'0 0.0
2018-Feb-18 02:29N 35°04' E 136°52'0 0.0
2018-Feb-18 02:00N 35°04' E 136°52'0 0.0
2018-Feb-18 01:30N 35°04' E 136°52'0 0.0
2018-Feb-18 01:00N 35°04' E 136°52'0 0.0
2018-Feb-18 00:30N 35°04' E 136°52'0 0.0
2018-Feb-17 23:59N 35°04' E 136°52'2 3.2
2018-Feb-17 23:30N 35°03' E 136°52'5 9.5
2018-Feb-17 23:00N 34°59' E 136°49'5 9.6
2018-Feb-17 22:30N 34°54' E 136°47'510.0
2018-Feb-17 22:00N 34°49' E 136°48'510.0
2018-Feb-17 21:28N 34°44' E 136°50'104 6.9
2018-Feb-17 06:26N 33°52' E 135°01'611.5
2018-Feb-17 05:55N 33°56' E 134°57'611.6
2018-Feb-17 05:25N 34°01' E 134°52'511.5
2018-Feb-17 04:59N 34°05' E 134°48'611.6
2018-Feb-17 04:30N 34°09' E 134°44'812.9
2018-Feb-17 03:55N 34°15' E 134°39'510.8
2018-Feb-17 03:29N 34°20' E 134°38'510.8
2018-Feb-17 03:00N 34°25' E 134°38'510.6
2018-Feb-17 02:30N 34°30' E 134°38'510.5
2018-Feb-17 02:01N 34°35' E 134°38'610.5
2018-Feb-17 01:29N 34°41' E 134°37'5 0.4
2018-Feb-16 12:34N 34°45' E 134°37'0 0.0
2018-Feb-16 12:28N 34°45' E 134°37'0 0.0
2018-Feb-16 10:52N 34°45' E 134°37'0 0.0
2018-Feb-16 10:28N 34°45' E 134°37'0 0.0
2018-Feb-16 09:58N 34°45' E 134°37'8 2.1
2018-Feb-16 06:03N 34°41' E 134°45'211.0
2018-Feb-16 05:52N 34°40' E 134°47'3 9.4
2018-Feb-16 05:30N 34°39' E 134°51'4 7.8
2018-Feb-16 05:00N 34°37' E 134°56'5 9.8
2018-Feb-16 04:30N 34°37' E 135°02'610.8
2018-Feb-16 04:00N 34°36' E 135°08'612.0
2018-Feb-16 03:30N 34°34' E 135°15'611.9
2018-Feb-16 03:00N 34°33' E 135°22'3 5.6
2018-Feb-16 02:28N 34°31' E 135°25'0 0.0
2018-Feb-16 01:58N 34°31' E 135°25'0 0.0
2018-Feb-16 01:28N 34°31' E 135°25'0 0.0
2018-Feb-16 00:58N 34°31' E 135°25'0 0.0
2018-Feb-16 00:28N 34°31' E 135°25'0 0.0
2018-Feb-15 23:58N 34°31' E 135°25'0 0.0
2018-Feb-15 23:30N 34°31' E 135°25'3 5.7
2018-Feb-15 23:00N 34°32' E 135°22'0 0.0
2018-Feb-15 22:30N 34°32' E 135°22'0 0.0
2018-Feb-15 22:00N 34°32' E 135°22'0 0.0
2018-Feb-15 21:30N 34°32' E 135°22'0 0.0
2018-Feb-15 21:00N 34°32' E 135°22'0 0.0
2018-Feb-15 20:30N 34°32' E 135°22'0 0.0
2018-Feb-15 20:00N 34°32' E 135°22'0 0.0
2018-Feb-15 19:30N 34°32' E 135°22'0 0.0
2018-Feb-15 18:59N 34°32' E 135°22'0 0.1
2018-Feb-15 18:30N 34°32' E 135°22'0 0.0
2018-Feb-15 18:00N 34°32' E 135°22'0 0.1
2018-Feb-15 17:30N 34°32' E 135°22'0 0.0
2018-Feb-15 17:00N 34°32' E 135°22'0 0.0
2018-Feb-15 16:30N 34°32' E 135°22'0 0.0
2018-Feb-15 16:00N 34°32' E 135°22'1 2.8
2018-Feb-15 15:30N 34°33' E 135°20'510.8
2018-Feb-15 15:00N 34°34' E 135°14'611.4
2018-Feb-15 14:30N 34°35' E 135°07'612.3
2018-Feb-15 14:00N 34°37' E 135°00'611.8
2018-Feb-15 13:30N 34°35' E 134°53'510.8
2018-Feb-15 13:00N 34°32' E 134°48'510.7
2018-Feb-15 12:30N 34°31' E 134°41'510.8
2018-Feb-15 12:00N 34°29' E 134°35'  
Track history (hours):
 
Tides and Currents Weather Stations Pressure Air Temp Water Temp Dewpoint Dewpoint Depression Visibility Wind Speed Wind Dir Waves Ship Positions

No.3toumei Maru

Last reported at 2018-Feb-24 12:53 UTC. Time now 2018-Feb-24 23:30 UTC.
Position N 35°10' E 139°44'.

Length 60 m.

Type: Tanker. MMSI: 431000178.

Date/timePositionNaut miles runAvg speedWind from/ knotsBaromVisibWave heightAir tempDewpointWater temp
2018-Feb-24 12:53N 35°10' E 139°44'511.1
2018-Feb-24 12:26N 35°15' E 139°46'511.4
2018-Feb-24 12:00N 35°19' E 139°43'510.9
2018-Feb-24 11:30N 35°24' E 139°43'611.6
2018-Feb-24 10:59N 35°29' E 139°47'2 4.1
2018-Feb-24 10:28N 35°31' E 139°46'0 0.0
2018-Feb-24 09:58N 35°31' E 139°46'0 0.0
2018-Feb-24 09:23N 35°31' E 139°46'0 0.0
2018-Feb-24 08:50N 35°31' E 139°46'0 0.0
2018-Feb-24 08:28N 35°31' E 139°46'0 0.0
2018-Feb-24 07:59N 35°31' E 139°46'0 0.0
2018-Feb-24 07:28N 35°31' E 139°46'0 0.0
2018-Feb-24 06:59N 35°31' E 139°46'0 0.0
2018-Feb-24 06:23N 35°31' E 139°46'0 0.0
2018-Feb-24 05:58N 35°31' E 139°46'2 4.7
2018-Feb-24 05:28N 35°30' E 139°49'10 0.2
2018-Feb-22 02:38N 35°37' E 139°58'9 1.9
2018-Feb-21 22:00N 35°30' E 139°52'510.8
2018-Feb-21 21:30N 35°26' E 139°48'610.8
2018-Feb-21 20:59N 35°21' E 139°45'510.3
2018-Feb-21 20:30N 35°16' E 139°46'510.6
2018-Feb-21 20:00N 35°11' E 139°46'1010.1
2018-Feb-21 19:00N 35°03' E 139°39'13910.6
2018-Feb-21 05:56N 34°39' E 136°52'511.7
2018-Feb-21 05:29N 34°43' E 136°48'611.7
2018-Feb-21 05:00N 34°48' E 136°45'611.3
2018-Feb-21 04:30N 34°53' E 136°43'5 9.6
2018-Feb-21 04:00N 34°57' E 136°39'0 0.5
2018-Feb-21 03:28N 34°57' E 136°38'0 0.0
2018-Feb-21 02:58N 34°57' E 136°38'0 0.0
2018-Feb-21 02:28N 34°57' E 136°38'0 0.0
2018-Feb-21 01:55N 34°57' E 136°38'0 0.0
2018-Feb-21 01:28N 34°57' E 136°38'0 0.0
2018-Feb-21 00:58N 34°57' E 136°38'0 0.0
2018-Feb-21 00:28N 34°57' E 136°38'0 0.0
2018-Feb-20 23:55N 34°57' E 136°38'1 1.6
2018-Feb-20 23:30N 34°57' E 136°39'0 0.1
2018-Feb-20 23:00N 34°57' E 136°39'0 0.0
2018-Feb-20 22:30N 34°57' E 136°39'0 0.0
2018-Feb-20 22:00N 34°57' E 136°39'0 0.0
2018-Feb-20 21:30N 34°57' E 136°39'0 0.0
2018-Feb-20 20:56N 34°57' E 136°39'0 0.0
2018-Feb-20 20:26N 34°57' E 136°39'0 0.0
2018-Feb-20 20:00N 34°57' E 136°39'0 0.0
2018-Feb-20 19:30N 34°57' E 136°39'0 0.0
2018-Feb-20 18:55N 34°57' E 136°39'0 0.0
2018-Feb-20 18:25N 34°57' E 136°39'0 0.0
2018-Feb-20 17:58N 34°57' E 136°39'0 0.0
2018-Feb-20 17:28N 34°57' E 136°39'0 0.0
2018-Feb-20 16:55N 34°57' E 136°39'0 0.0
2018-Feb-20 16:25N 34°57' E 136°39'0 0.0
2018-Feb-20 15:55N 34°57' E 136°39'0 0.0
2018-Feb-20 15:25N 34°57' E 136°39'0 0.0
2018-Feb-20 14:55N 34°57' E 136°39'0 0.0
2018-Feb-20 14:25N 34°57' E 136°39'0 0.0
2018-Feb-20 13:55N 34°57' E 136°39'0 0.0
2018-Feb-20 13:28N 34°57' E 136°39'0 0.0
2018-Feb-20 12:58N 34°57' E 136°39'0 0.0
2018-Feb-20 12:28N 34°57' E 136°39'0 0.0
2018-Feb-20 11:47N 34°57' E 136°39'0 0.0
2018-Feb-20 11:29N 34°57' E 136°39'0 0.0
2018-Feb-20 10:59N 34°57' E 136°39'0 0.0
2018-Feb-20 10:29N 34°57' E 136°39'0 0.0
2018-Feb-20 09:59N 34°57' E 136°39'0 0.0
2018-Feb-20 09:29N 34°57' E 136°39'0 0.0
2018-Feb-20 08:59N 34°57' E 136°39'0 0.0
2018-Feb-20 08:29N 34°57' E 136°39'0 0.0
2018-Feb-20 07:55N 34°57' E 136°39'0 0.0
2018-Feb-20 07:28N 34°57' E 136°39'0 0.0
2018-Feb-20 07:00N 34°57' E 136°39'3 5.3
2018-Feb-20 06:30N 34°57' E 136°42'4 7.9
2018-Feb-20 06:00N 34°59' E 136°46'5 9.8
2018-Feb-20 05:30N 35°02' E 136°51'2 4.1
2018-Feb-20 04:59N 35°03' E 136°53'0 0.0
2018-Feb-20 04:29N 35°03' E 136°53'0 0.3
2018-Feb-20 04:01N 35°03' E 136°53'1 1.3
2018-Feb-20 03:28N 35°03' E 136°52'0 0.0
2018-Feb-20 03:01N 35°03' E 136°52'0 0.0
2018-Feb-20 02:28N 35°03' E 136°52'0 0.0
2018-Feb-20 02:00N 35°03' E 136°52'0 0.0
2018-Feb-20 01:27N 35°03' E 136°52'3 7.5
2018-Feb-20 01:00N 35°00' E 136°50'510.2
2018-Feb-20 00:30N 34°56' E 136°47'510.3
2018-Feb-20 00:00N 34°50' E 136°47'510.3
2018-Feb-19 23:30N 34°45' E 136°49'147 9.0
2018-Feb-19 07:15N 35°12' E 139°45'3 9.8
2018-Feb-19 06:56N 35°15' E 139°46'4 9.9
2018-Feb-19 06:30N 35°19' E 139°43'5 9.6
2018-Feb-19 05:59N 35°23' E 139°43'510.3
2018-Feb-19 05:30N 35°27' E 139°47'14 2.3
2018-Feb-18 23:19N 35°32' E 140°03'1 2.9
2018-Feb-18 22:56N 35°32' E 140°02'0 0.0
2018-Feb-18 22:26N 35°32' E 140°02'0 0.6
2018-Feb-18 21:59N 35°32' E 140°02'611.0
2018-Feb-18 21:24N 35°29' E 139°54'511.4
2018-Feb-18 21:00N 35°27' E 139°50'611.3
2018-Feb-18 20:30N 35°22' E 139°46'510.7
2018-Feb-18 20:00N 35°17' E 139°46'611.0
2018-Feb-18 19:28N 35°11' E 139°46'1110.9
2018-Feb-18 18:27N 35°02' E 139°39'13911.0
2018-Feb-18 05:48N 34°39' E 136°52'411.9
2018-Feb-18 05:28N 34°42' E 136°49'612.2
2018-Feb-18 05:00N 34°48' E 136°46'612.3
2018-Feb-18 04:30N 34°54' E 136°46'611.0
2018-Feb-18 04:00N 34°59' E 136°48'611.5
2018-Feb-18 03:30N 35°04' E 136°52'1 1.5
2018-Feb-18 02:59N 35°04' E 136°52'0 0.0
2018-Feb-18 02:29N 35°04' E 136°52'0 0.0
2018-Feb-18 02:00N 35°04' E 136°52'0 0.0
2018-Feb-18 01:30N 35°04' E 136°52'0 0.0
2018-Feb-18 01:00N 35°04' E 136°52'0 0.0
2018-Feb-18 00:30N 35°04' E 136°52'0 0.0
2018-Feb-17 23:59N 35°04' E 136°52'2 3.2
2018-Feb-17 23:30N 35°03' E 136°52'5 9.5
2018-Feb-17 23:00N 34°59' E 136°49'5 9.6
2018-Feb-17 22:30N 34°54' E 136°47'510.0
2018-Feb-17 22:00N 34°49' E 136°48'510.0
2018-Feb-17 21:28N 34°44' E 136°50'104 6.9
2018-Feb-17 06:26N 33°52' E 135°01'611.5
2018-Feb-17 05:55N 33°56' E 134°57'611.6
2018-Feb-17 05:25N 34°01' E 134°52'511.5
2018-Feb-17 04:59N 34°05' E 134°48'611.6
2018-Feb-17 04:30N 34°09' E 134°44'812.9
2018-Feb-17 03:55N 34°15' E 134°39'510.8
2018-Feb-17 03:29N 34°20' E 134°38'510.8
2018-Feb-17 03:00N 34°25' E 134°38'510.6
2018-Feb-17 02:30N 34°30' E 134°38'510.5
2018-Feb-17 02:01N 34°35' E 134°38'610.5
2018-Feb-17 01:29N 34°41' E 134°37'5 0.4
2018-Feb-16 12:34N 34°45' E 134°37'0 0.0
2018-Feb-16 12:28N 34°45' E 134°37'0 0.0
2018-Feb-16 10:52N 34°45' E 134°37'0 0.0
2018-Feb-16 10:28N 34°45' E 134°37'0 0.0
2018-Feb-16 09:58N 34°45' E 134°37'8 2.1
2018-Feb-16 06:03N 34°41' E 134°45'211.0
2018-Feb-16 05:52N 34°40' E 134°47'3 9.4
2018-Feb-16 05:30N 34°39' E 134°51'4 7.8
2018-Feb-16 05:00N 34°37' E 134°56'5 9.8
2018-Feb-16 04:30N 34°37' E 135°02'610.8
2018-Feb-16 04:00N 34°36' E 135°08'612.0
2018-Feb-16 03:30N 34°34' E 135°15'611.9
2018-Feb-16 03:00N 34°33' E 135°22'3 5.6
2018-Feb-16 02:28N 34°31' E 135°25'0 0.0
2018-Feb-16 01:58N 34°31' E 135°25'0 0.0
2018-Feb-16 01:28N 34°31' E 135°25'0 0.0
2018-Feb-16 00:58N 34°31' E 135°25'0 0.0
2018-Feb-16 00:28N 34°31' E 135°25'0 0.0
2018-Feb-15 23:58N 34°31' E 135°25'0 0.0
2018-Feb-15 23:30N 34°31' E 135°25'3 5.7
2018-Feb-15 23:00N 34°32' E 135°22'0 0.0
2018-Feb-15 22:30N 34°32' E 135°22'0 0.0
2018-Feb-15 22:00N 34°32' E 135°22'0 0.0
2018-Feb-15 21:30N 34°32' E 135°22'0 0.0
2018-Feb-15 21:00N 34°32' E 135°22'0 0.0
2018-Feb-15 20:30N 34°32' E 135°22'0 0.0
2018-Feb-15 20:00N 34°32' E 135°22'0 0.0
2018-Feb-15 19:30N 34°32' E 135°22'0 0.0
2018-Feb-15 18:59N 34°32' E 135°22'0 0.1
2018-Feb-15 18:30N 34°32' E 135°22'0 0.0
2018-Feb-15 18:00N 34°32' E 135°22'0 0.1
2018-Feb-15 17:30N 34°32' E 135°22'0 0.0
2018-Feb-15 17:00N 34°32' E 135°22'0 0.0
2018-Feb-15 16:30N 34°32' E 135°22'0 0.0
2018-Feb-15 16:00N 34°32' E 135°22'1 2.8
2018-Feb-15 15:30N 34°33' E 135°20'510.8
2018-Feb-15 15:00N 34°34' E 135°14'611.4
2018-Feb-15 14:30N 34°35' E 135°07'612.3
2018-Feb-15 14:00N 34°37' E 135°00'611.8
2018-Feb-15 13:30N 34°35' E 134°53'510.8
2018-Feb-15 13:00N 34°32' E 134°48'510.7
2018-Feb-15 12:30N 34°31' E 134°41'510.8
2018-Feb-15 12:00N 34°29' E 134°35'  

Dump ship's entire track history